createdAt,value
2023-03-22T00:00:00.313Z,9.62
2023-03-22T00:02:27.624Z,9.58
2023-03-22T00:04:54.596Z,9.58
2023-03-22T00:07:21.696Z,9.57
2023-03-22T00:09:48.598Z,9.56
2023-03-22T00:12:15.509Z,9.55
2023-03-22T00:14:42.894Z,9.53
2023-03-22T00:17:09.784Z,9.49
2023-03-22T00:19:37.402Z,9.49
2023-03-22T00:22:06.285Z,9.50
2023-03-22T00:24:33.387Z,9.47
2023-03-22T00:27:00.974Z,9.43
2023-03-22T00:29:27.975Z,9.38
2023-03-22T00:31:56.087Z,9.32
2023-03-22T00:34:23.236Z,9.30
2023-03-22T00:36:51.864Z,9.31
2023-03-22T00:39:18.806Z,9.31
2023-03-22T00:41:45.970Z,9.28
2023-03-22T00:44:12.791Z,9.21
2023-03-22T00:46:39.636Z,9.20
2023-03-22T00:49:06.473Z,9.19
2023-03-22T00:51:33.360Z,9.15
2023-03-22T00:54:00.448Z,9.14
2023-03-22T00:56:28.704Z,9.12
2023-03-22T00:59:01.120Z,9.19
2023-03-22T01:01:29.058Z,9.22
2023-03-22T01:03:56.178Z,9.18
2023-03-22T01:06:23.023Z,9.15
2023-03-22T01:08:50.992Z,9.13
2023-03-22T01:11:18.451Z,9.11
2023-03-22T01:13:45.631Z,9.06
2023-03-22T01:16:12.676Z,9.09
2023-03-22T01:18:40.744Z,9.09
2023-03-22T01:21:09.025Z,9.10
2023-03-22T01:23:36.397Z,9.09
2023-03-22T01:26:05.628Z,9.08
2023-03-22T01:28:33.278Z,9.04
2023-03-22T01:31:04.240Z,9.06
2023-03-22T01:33:31.742Z,9.04
2023-03-22T01:35:59.364Z,9.01
2023-03-22T01:38:27.249Z,8.97
2023-03-22T01:40:58.077Z,9.00
2023-03-22T01:43:26.371Z,9.06
2023-03-22T01:45:55.097Z,9.09
2023-03-22T01:48:45.992Z,9.11
2023-03-22T01:51:25.306Z,9.16
2023-03-22T01:54:30.495Z,9.24
2023-03-22T01:57:00.501Z,9.23
2023-03-22T01:59:40.108Z,9.26
2023-03-22T02:02:19.310Z,9.35
2023-03-22T02:05:07.242Z,9.41
2023-03-22T02:07:54.198Z,9.41
2023-03-22T02:10:27.388Z,9.42
2023-03-22T02:13:38.960Z,9.52
2023-03-22T02:16:34.336Z,9.55
2023-03-22T02:20:07.929Z,9.58
2023-03-22T02:23:12.088Z,9.58
2023-03-22T02:25:57.262Z,9.59
2023-03-22T02:28:42.951Z,9.64
2023-03-22T02:32:11.514Z,9.70
2023-03-22T02:35:41.821Z,9.78
2023-03-22T02:39:01.197Z,9.79
2023-03-22T02:41:52.246Z,9.76
2023-03-22T02:45:06.034Z,9.79
2023-03-22T02:48:15.334Z,9.77
2023-03-22T02:50:59.369Z,9.80
2023-03-22T02:53:44.464Z,9.82
2023-03-22T02:56:19.177Z,9.84
2023-03-22T02:58:53.443Z,9.86
2023-03-22T03:01:48.113Z,9.87
2023-03-22T03:04:35.459Z,9.88
2023-03-22T03:07:09.561Z,9.89
2023-03-22T03:09:42.924Z,9.88
2023-03-22T03:12:21.366Z,9.89
2023-03-22T03:14:48.806Z,9.93
2023-03-22T03:17:23.554Z,9.95
2023-03-22T03:20:08.280Z,9.96
2023-03-22T03:23:24.502Z,9.97
2023-03-22T03:26:10.151Z,9.95
2023-03-22T03:28:49.821Z,9.92
2023-03-22T03:31:46.853Z,9.93
2023-03-22T03:34:19.921Z,9.95
2023-03-22T03:36:58.811Z,9.95
2023-03-22T03:39:30.948Z,9.95
2023-03-22T03:42:00.999Z,9.95
2023-03-22T03:44:31.563Z,9.96
2023-03-22T03:46:59.752Z,9.97
2023-03-22T03:49:27.218Z,9.96
2023-03-22T03:51:56.119Z,9.95
2023-03-22T03:54:24.246Z,9.92
2023-03-22T03:56:51.233Z,9.91
2023-03-22T03:59:18.994Z,9.89
2023-03-22T04:01:52.535Z,9.87
2023-03-22T04:04:29.637Z,9.85
2023-03-22T04:07:06.737Z,9.82
2023-03-22T04:09:38.959Z,9.80
2023-03-22T04:12:16.956Z,9.78
2023-03-22T04:14:55.907Z,9.74
2023-03-22T04:17:29.240Z,9.70
2023-03-22T04:19:56.637Z,9.68
2023-03-22T04:22:26.276Z,9.63
2023-03-22T04:24:53.172Z,9.59
2023-03-22T04:27:22.610Z,9.59
2023-03-22T04:30:19.640Z,9.56
2023-03-22T04:33:08.620Z,9.55
2023-03-22T04:36:10.616Z,9.54
2023-03-22T04:38:51.801Z,9.53
2023-03-22T04:41:22.112Z,9.51
2023-03-22T04:43:51.884Z,9.48
2023-03-22T04:46:21.291Z,9.44
2023-03-22T04:48:55.501Z,9.44
2023-03-22T04:51:23.669Z,9.46
2023-03-22T04:54:15.630Z,9.45
2023-03-22T04:56:44.157Z,9.46
2023-03-22T04:59:12.160Z,9.48
2023-03-22T05:01:40.785Z,9.47
2023-03-22T05:04:13.829Z,9.47
2023-03-22T05:06:41.999Z,9.49
2023-03-22T05:09:16.368Z,9.48
2023-03-22T05:11:43.636Z,9.49
2023-03-22T05:14:27.645Z,9.53
2023-03-22T05:16:54.639Z,9.56
2023-03-22T05:19:24.427Z,9.56
2023-03-22T05:21:58.311Z,9.58
2023-03-22T05:24:37.077Z,9.60
2023-03-22T05:27:04.340Z,9.58
2023-03-22T05:29:36.934Z,9.56
2023-03-22T05:32:12.235Z,9.56
2023-03-22T05:34:41.872Z,9.54
2023-03-22T05:37:22.431Z,9.54
2023-03-22T05:39:54.811Z,9.53
2023-03-22T05:42:27.027Z,9.52
2023-03-22T05:44:53.871Z,9.52
2023-03-22T05:47:22.125Z,9.52
2023-03-22T05:49:57.442Z,9.50
2023-03-22T05:52:25.517Z,9.51
2023-03-22T05:55:19.974Z,9.51
2023-03-22T05:57:51.504Z,9.52
2023-03-22T06:00:20.003Z,9.50
2023-03-22T06:03:06.832Z,9.48
2023-03-22T06:05:39.102Z,9.44
2023-03-22T06:08:06.751Z,9.47
2023-03-22T06:10:33.675Z,9.51
2023-03-22T06:13:00.955Z,9.53
2023-03-22T06:15:31.725Z,9.55
2023-03-22T06:18:07.820Z,9.58
2023-03-22T06:20:40.298Z,9.60
2023-03-22T06:23:13.737Z,9.60
2023-03-22T06:25:42.162Z,9.59
2023-03-22T06:28:09.323Z,9.60
2023-03-22T06:30:38.699Z,9.66
2023-03-22T06:33:20.838Z,9.73
2023-03-22T06:35:53.684Z,9.78
2023-03-22T06:38:30.731Z,9.82
2023-03-22T06:40:57.786Z,9.87
2023-03-22T06:43:24.716Z,9.94
2023-03-22T06:45:57.561Z,10.00
2023-03-22T06:48:31.196Z,10.02
2023-03-22T06:51:05.794Z,10.05
2023-03-22T06:53:35.518Z,10.05
2023-03-22T06:56:04.787Z,10.07
2023-03-22T06:58:41.047Z,10.09
2023-03-22T07:01:07.973Z,10.14
2023-03-22T07:03:36.441Z,10.19
2023-03-22T07:06:09.311Z,10.25
2023-03-22T07:08:39.950Z,10.34
2023-03-22T07:11:08.690Z,10.45
2023-03-22T07:13:36.964Z,10.55
2023-03-22T07:16:10.236Z,10.60
2023-03-22T07:18:55.963Z,10.62
2023-03-22T07:21:23.083Z,10.62
2023-03-22T07:23:55.434Z,10.55
2023-03-22T07:26:26.335Z,10.50
2023-03-22T07:28:57.915Z,10.48
2023-03-22T07:31:29.238Z,10.46
2023-03-22T07:34:01.554Z,10.46
2023-03-22T07:36:32.870Z,10.47
2023-03-22T07:38:59.835Z,10.49
2023-03-22T07:41:34.062Z,10.53
2023-03-22T07:44:19.261Z,10.60
2023-03-22T07:46:58.808Z,10.66
2023-03-22T07:49:31.958Z,10.71
2023-03-22T07:52:06.689Z,10.77
2023-03-22T07:54:34.672Z,10.80
2023-03-22T07:57:04.005Z,10.86
2023-03-22T07:59:34.575Z,10.91
2023-03-22T08:02:02.356Z,10.97
2023-03-22T08:04:38.894Z,11.03
2023-03-22T08:07:15.695Z,11.01
2023-03-22T08:09:42.883Z,11.05
2023-03-22T08:12:10.990Z,11.08
2023-03-22T08:14:39.143Z,11.10
2023-03-22T08:17:12.736Z,11.10
2023-03-22T08:19:40.398Z,11.10
2023-03-22T08:22:13.419Z,11.15
2023-03-22T08:25:10.191Z,11.22
2023-03-22T08:27:39.457Z,11.30
2023-03-22T08:30:07.528Z,11.36
2023-03-22T08:32:34.497Z,11.42
2023-03-22T08:35:02.262Z,11.45
2023-03-22T08:37:29.618Z,11.52
2023-03-22T08:39:56.769Z,11.66
2023-03-22T08:42:23.594Z,11.79
2023-03-22T08:44:52.057Z,11.84
2023-03-22T08:47:21.178Z,11.91
2023-03-22T08:49:52.141Z,11.97
2023-03-22T08:52:24.293Z,11.99
2023-03-22T08:55:05.397Z,12.03
2023-03-22T08:58:04.739Z,12.07
2023-03-22T09:00:49.929Z,12.01
2023-03-22T09:03:25.310Z,12.00
2023-03-22T09:05:52.998Z,12.02
2023-03-22T09:08:20.523Z,12.08
2023-03-22T09:10:53.008Z,12.11
2023-03-22T09:13:22.597Z,12.23
2023-03-22T09:15:54.754Z,12.35
2023-03-22T09:18:25.335Z,12.42
2023-03-22T09:20:54.005Z,12.40
2023-03-22T09:23:25.442Z,12.44
2023-03-22T09:25:53.069Z,12.49
2023-03-22T09:28:24.335Z,12.49
2023-03-22T09:30:53.223Z,12.49
2023-03-22T09:33:20.756Z,12.52
2023-03-22T09:35:50.744Z,12.62
2023-03-22T09:38:18.016Z,12.59
2023-03-22T09:41:00.746Z,12.51
2023-03-22T09:43:38.485Z,12.42
2023-03-22T09:46:17.586Z,12.35
2023-03-22T09:48:49.504Z,12.33
2023-03-22T09:51:44.551Z,12.33
2023-03-22T09:54:15.972Z,12.31
2023-03-22T09:56:51.437Z,12.29
2023-03-22T09:59:32.542Z,12.30
2023-03-22T10:02:05.015Z,12.30
2023-03-22T10:04:59.651Z,12.33
2023-03-22T10:07:53.506Z,12.32
2023-03-22T10:10:24.254Z,12.31
2023-03-22T10:13:13.821Z,12.28
2023-03-22T10:15:49.136Z,12.24
2023-03-22T10:18:39.216Z,12.23
2023-03-22T10:21:12.721Z,12.25
2023-03-22T10:24:05.281Z,12.19
2023-03-22T10:26:45.002Z,12.12
2023-03-22T10:29:39.877Z,12.05
2023-03-22T10:32:19.658Z,11.96
2023-03-22T10:34:47.487Z,11.80
2023-03-22T10:37:27.014Z,11.58
2023-03-22T10:40:02.560Z,11.35
2023-03-22T10:42:31.528Z,11.13
2023-03-22T10:45:04.318Z,10.96
2023-03-22T10:47:46.559Z,10.84
2023-03-22T10:50:28.556Z,10.72
2023-03-22T10:53:04.052Z,10.66
2023-03-22T10:55:30.886Z,10.64
2023-03-22T10:58:14.899Z,10.63
2023-03-22T11:00:53.826Z,10.62
2023-03-22T11:03:36.482Z,10.57
2023-03-22T11:06:13.303Z,10.53
2023-03-22T11:08:52.918Z,10.52
2023-03-22T11:11:30.277Z,10.48
2023-03-22T11:14:14.084Z,10.42
2023-03-22T11:16:47.504Z,10.39
2023-03-22T11:19:24.225Z,10.37
2023-03-22T11:21:52.782Z,10.37
2023-03-22T11:24:21.574Z,10.35
2023-03-22T11:27:18.288Z,10.42
2023-03-22T11:29:57.242Z,10.43
2023-03-22T11:32:31.222Z,10.48
2023-03-22T11:35:31.278Z,10.50
2023-03-22T11:37:59.386Z,10.52
2023-03-22T11:40:36.210Z,10.49
2023-03-22T11:43:23.257Z,10.48
2023-03-22T11:45:58.687Z,10.53
2023-03-22T11:48:31.652Z,10.62
2023-03-22T11:51:37.462Z,10.79
2023-03-22T11:54:13.232Z,10.94
2023-03-22T11:56:45.299Z,11.06
2023-03-22T11:59:22.978Z,11.15
2023-03-22T12:02:18.848Z,11.23
2023-03-22T12:04:48.474Z,11.22
2023-03-22T12:07:24.463Z,11.21
2023-03-22T12:10:03.443Z,11.26
2023-03-22T12:12:39.504Z,11.30
2023-03-22T12:15:26.928Z,11.33
2023-03-22T12:18:00.301Z,11.37
2023-03-22T12:20:36.114Z,11.40
2023-03-22T12:23:13.162Z,11.45
2023-03-22T12:25:51.328Z,11.49
2023-03-22T12:28:29.951Z,11.54
2023-03-22T12:30:59.059Z,11.58
2023-03-22T12:33:45.354Z,11.58
2023-03-22T12:36:19.361Z,11.58
2023-03-22T12:38:57.692Z,11.56
2023-03-22T12:41:53.915Z,11.59
2023-03-22T12:44:39.236Z,11.64
2023-03-22T12:47:23.798Z,11.66
2023-03-22T12:50:05.334Z,11.69
2023-03-22T12:52:46.335Z,11.69
2023-03-22T12:55:27.794Z,11.66
2023-03-22T12:57:55.702Z,11.65
2023-03-22T13:00:38.829Z,11.66
2023-03-22T13:03:18.200Z,11.66
2023-03-22T13:05:49.136Z,11.66
2023-03-22T13:08:21.707Z,11.69
2023-03-22T13:11:04.449Z,11.73
2023-03-22T13:13:43.214Z,11.78
2023-03-22T13:16:11.167Z,11.79
2023-03-22T13:18:38.289Z,11.82
2023-03-22T13:21:09.053Z,11.85
2023-03-22T13:23:35.930Z,11.86
2023-03-22T13:26:06.161Z,11.87
2023-03-22T13:28:37.316Z,11.89
2023-03-22T13:31:05.755Z,11.90
2023-03-22T13:33:37.367Z,11.91
2023-03-22T13:36:25.641Z,11.90
2023-03-22T13:39:00.018Z,11.89
2023-03-22T13:41:31.202Z,11.89
2023-03-22T13:44:03.598Z,11.87
2023-03-22T13:46:36.916Z,11.87
2023-03-22T13:49:04.193Z,11.90
2023-03-22T13:51:33.348Z,11.91
2023-03-22T13:54:16.510Z,11.96
2023-03-22T13:57:01.639Z,11.97
2023-03-22T13:59:30.950Z,12.02
2023-03-22T14:02:15.608Z,12.03
2023-03-22T14:05:01.923Z,12.01
2023-03-22T14:07:44.393Z,12.04
2023-03-22T14:10:43.699Z,12.07
2023-03-22T14:13:35.160Z,12.06
2023-03-22T14:17:05.747Z,12.07
2023-03-22T14:19:35.902Z,12.08
